sensor_id;sensor_type;location;lat;lon;timestamp;temperature;humidity
78461;SHT31;67755;51.986;5.696;2023-06-26T00:00:26;27.2;51.2
78461;SHT31;67755;51.986;5.696;2023-06-26T00:02:55;27.1;51.8
78461;SHT31;67755;51.986;5.696;2023-06-26T00:05:25;27.1;51.2
78461;SHT31;67755;51.986;5.696;2023-06-26T00:07:55;27.1;51.6
78461;SHT31;67755;51.986;5.696;2023-06-26T00:10:27;27.1;51.7
78461;SHT31;67755;51.986;5.696;2023-06-26T00:12:59;27.1;51.9
78461;SHT31;67755;51.986;5.696;2023-06-26T00:15:29;27.1;51.6
78461;SHT31;67755;51.986;5.696;2023-06-26T00:17:59;27.0;51.6
78461;SHT31;67755;51.986;5.696;2023-06-26T00:20:30;27.0;52.1
78461;SHT31;67755;51.986;5.696;2023-06-26T00:23:01;27.0;52.1
78461;SHT31;67755;51.986;5.696;2023-06-26T00:25:33;27.0;51.9
78461;SHT31;67755;51.986;5.696;2023-06-26T00:28:03;26.9;51.7
78461;SHT31;67755;51.986;5.696;2023-06-26T00:30:32;26.9;51.9
78461;SHT31;67755;51.986;5.696;2023-06-26T00:33:02;26.9;51.9
78461;SHT31;67755;51.986;5.696;2023-06-26T00:35:32;26.9;52.0
78461;SHT31;67755;51.986;5.696;2023-06-26T00:38:02;26.9;52.2
78461;SHT31;67755;51.986;5.696;2023-06-26T00:40:32;26.8;52.0
78461;SHT31;67755;51.986;5.696;2023-06-26T00:43:02;26.8;52.0
78461;SHT31;67755;51.986;5.696;2023-06-26T00:45:31;26.8;52.2
78461;SHT31;67755;51.986;5.696;2023-06-26T00:48:01;26.8;52.4
78461;SHT31;67755;51.986;5.696;2023-06-26T00:50:32;26.8;52.4
78461;SHT31;67755;51.986;5.696;2023-06-26T00:53:01;26.8;52.1
78461;SHT31;67755;51.986;5.696;2023-06-26T00:55:31;26.8;52.3
78461;SHT31;67755;51.986;5.696;2023-06-26T00:58:01;26.8;52.2
78461;SHT31;67755;51.986;5.696;2023-06-26T01:00:31;26.8;52.2
78461;SHT31;67755;51.986;5.696;2023-06-26T01:03:01;26.8;52.3
78461;SHT31;67755;51.986;5.696;2023-06-26T01:05:32;26.8;52.5
78461;SHT31;67755;51.986;5.696;2023-06-26T01:08:03;26.8;52.6
78461;SHT31;67755;51.986;5.696;2023-06-26T01:10:33;26.7;52.4
78461;SHT31;67755;51.986;5.696;2023-06-26T01:13:04;26.7;52.3
78461;SHT31;67755;51.986;5.696;2023-06-26T01:15:35;26.7;52.3
78461;SHT31;67755;51.986;5.696;2023-06-26T01:18:07;26.7;52.2
78461;SHT31;67755;51.986;5.696;2023-06-26T01:20:38;26.7;52.4
78461;SHT31;67755;51.986;5.696;2023-06-26T01:23:17;26.7;52.5
78461;SHT31;67755;51.986;5.696;2023-06-26T01:25:59;26.7;52.3
78461;SHT31;67755;51.986;5.696;2023-06-26T01:28:32;26.7;52.7
78461;SHT31;67755;51.986;5.696;2023-06-26T01:31:05;26.7;52.5
78461;SHT31;67755;51.986;5.696;2023-06-26T01:33:36;26.7;52.6
78461;SHT31;67755;51.986;5.696;2023-06-26T01:36:07;26.7;52.5
78461;SHT31;67755;51.986;5.696;2023-06-26T01:38:36;26.7;52.5
78461;SHT31;67755;51.986;5.696;2023-06-26T01:41:06;26.7;51.6
78461;SHT31;67755;51.986;5.696;2023-06-26T01:43:47;26.6;52.1
78461;SHT31;67755;51.986;5.696;2023-06-26T01:46:24;26.6;51.3
78461;SHT31;67755;51.986;5.696;2023-06-26T01:49:00;26.6;51.0
78461;SHT31;67755;51.986;5.696;2023-06-26T01:51:37;26.6;50.6
78461;SHT31;67755;51.986;5.696;2023-06-26T01:54:12;26.6;51.8
78461;SHT31;67755;51.986;5.696;2023-06-26T01:56:45;26.6;51.7
78461;SHT31;67755;51.986;5.696;2023-06-26T01:59:18;26.5;50.2
78461;SHT31;67755;51.986;5.696;2023-06-26T02:01:49;26.5;51.2
78461;SHT31;67755;51.986;5.696;2023-06-26T02:04:18;26.5;50.7
78461;SHT31;67755;51.986;5.696;2023-06-26T02:06:48;26.5;50.3
78461;SHT31;67755;51.986;5.696;2023-06-26T02:09:17;26.5;49.8
78461;SHT31;67755;51.986;5.696;2023-06-26T02:11:47;26.5;50.5
78461;SHT31;67755;51.986;5.696;2023-06-26T02:14:16;26.5;50.2
78461;SHT31;67755;51.986;5.696;2023-06-26T02:16:46;26.5;50.1
78461;SHT31;67755;51.986;5.696;2023-06-26T02:19:15;26.5;50.4
78461;SHT31;67755;51.986;5.696;2023-06-26T02:21:49;26.5;49.9
78461;SHT31;67755;51.986;5.696;2023-06-26T02:24:18;26.5;49.8
78461;SHT31;67755;51.986;5.696;2023-06-26T02:26:48;26.4;50.5
78461;SHT31;67755;51.986;5.696;2023-06-26T02:29:20;26.4;50.2
78461;SHT31;67755;51.986;5.696;2023-06-26T02:31:51;26.4;50.1
78461;SHT31;67755;51.986;5.696;2023-06-26T02:34:21;26.4;49.9
78461;SHT31;67755;51.986;5.696;2023-06-26T02:36:57;26.4;49.8
78461;SHT31;67755;51.986;5.696;2023-06-26T02:39:28;26.3;50.1
78461;SHT31;67755;51.986;5.696;2023-06-26T02:41:57;26.3;50.3
78461;SHT31;67755;51.986;5.696;2023-06-26T02:44:27;26.3;50.5
78461;SHT31;67755;51.986;5.696;2023-06-26T02:46:56;26.3;50.8
78461;SHT31;67755;51.986;5.696;2023-06-26T02:49:26;26.3;50.9
78461;SHT31;67755;51.986;5.696;2023-06-26T02:51:55;26.2;51.2
78461;SHT31;67755;51.986;5.696;2023-06-26T02:54:25;26.2;51.1
78461;SHT31;67755;51.986;5.696;2023-06-26T02:56:55;26.2;51.0
78461;SHT31;67755;51.986;5.696;2023-06-26T02:59:25;26.1;51.1
78461;SHT31;67755;51.986;5.696;2023-06-26T03:01:55;26.1;51.1
78461;SHT31;67755;51.986;5.696;2023-06-26T03:04:24;26.1;51.3
78461;SHT31;67755;51.986;5.696;2023-06-26T03:06:54;26.0;51.4
78461;SHT31;67755;51.986;5.696;2023-06-26T03:09:23;26.0;51.9
78461;SHT31;67755;51.986;5.696;2023-06-26T03:11:53;25.9;51.8
78461;SHT31;67755;51.986;5.696;2023-06-26T03:14:23;25.9;52.1
78461;SHT31;67755;51.986;5.696;2023-06-26T03:16:54;25.9;51.9
78461;SHT31;67755;51.986;5.696;2023-06-26T03:19:28;25.9;52.2
78461;SHT31;67755;51.986;5.696;2023-06-26T03:21:58;25.8;52.1
78461;SHT31;67755;51.986;5.696;2023-06-26T03:24:27;25.8;52.3
78461;SHT31;67755;51.986;5.696;2023-06-26T03:26:57;25.8;52.6
78461;SHT31;67755;51.986;5.696;2023-06-26T03:29:27;25.8;52.5
78461;SHT31;67755;51.986;5.696;2023-06-26T03:31:57;25.7;52.7
78461;SHT31;67755;51.986;5.696;2023-06-26T03:34:28;25.7;52.8
78461;SHT31;67755;51.986;5.696;2023-06-26T03:36:58;25.7;53.0
78461;SHT31;67755;51.986;5.696;2023-06-26T03:39:27;25.6;53.1
78461;SHT31;67755;51.986;5.696;2023-06-26T03:41:57;25.6;53.3
78461;SHT31;67755;51.986;5.696;2023-06-26T03:44:28;25.6;53.4
78461;SHT31;67755;51.986;5.696;2023-06-26T03:46:57;25.5;53.5
78461;SHT31;67755;51.986;5.696;2023-06-26T03:49:27;25.5;53.7
78461;SHT31;67755;51.986;5.696;2023-06-26T03:51:57;25.5;53.8
78461;SHT31;67755;51.986;5.696;2023-06-26T03:54:26;25.5;53.9
78461;SHT31;67755;51.986;5.696;2023-06-26T03:56:56;25.5;54.0
78461;SHT31;67755;51.986;5.696;2023-06-26T03:59:28;25.4;54.2
78461;SHT31;67755;51.986;5.696;2023-06-26T04:01:57;25.4;54.4
78461;SHT31;67755;51.986;5.696;2023-06-26T04:04:27;25.4;54.6
78461;SHT31;67755;51.986;5.696;2023-06-26T04:06:57;25.4;54.5
78461;SHT31;67755;51.986;5.696;2023-06-26T04:09:27;25.4;54.3
78461;SHT31;67755;51.986;5.696;2023-06-26T04:11:57;25.3;54.7
78461;SHT31;67755;51.986;5.696;2023-06-26T04:14:26;25.3;55.2
78461;SHT31;67755;51.986;5.696;2023-06-26T04:16:56;25.3;55.4
78461;SHT31;67755;51.986;5.696;2023-06-26T04:19:27;25.3;55.2
78461;SHT31;67755;51.986;5.696;2023-06-26T04:21:57;25.3;55.4
78461;SHT31;67755;51.986;5.696;2023-06-26T04:24:27;25.3;55.1
78461;SHT31;67755;51.986;5.696;2023-06-26T04:26:56;25.3;55.2
78461;SHT31;67755;51.986;5.696;2023-06-26T04:29:27;25.3;55.2
78461;SHT31;67755;51.986;5.696;2023-06-26T04:31:57;25.3;55.0
78461;SHT31;67755;51.986;5.696;2023-06-26T04:34:27;25.3;55.3
78461;SHT31;67755;51.986;5.696;2023-06-26T04:37:02;25.3;55.3
78461;SHT31;67755;51.986;5.696;2023-06-26T04:39:32;25.3;55.6
78461;SHT31;67755;51.986;5.696;2023-06-26T04:42:05;25.3;55.7
78461;SHT31;67755;51.986;5.696;2023-06-26T04:44:35;25.2;55.3
78461;SHT31;67755;51.986;5.696;2023-06-26T04:47:05;25.2;55.3
78461;SHT31;67755;51.986;5.696;2023-06-26T04:49:35;25.2;55.2
78461;SHT31;67755;51.986;5.696;2023-06-26T04:52:05;25.2;55.3
78461;SHT31;67755;51.986;5.696;2023-06-26T04:54:34;25.2;55.6
78461;SHT31;67755;51.986;5.696;2023-06-26T04:57:04;25.1;55.5
78461;SHT31;67755;51.986;5.696;2023-06-26T04:59:36;25.1;55.7
78461;SHT31;67755;51.986;5.696;2023-06-26T05:02:06;25.1;55.9
78461;SHT31;67755;51.986;5.696;2023-06-26T05:04:35;25.1;56.1
78461;SHT31;67755;51.986;5.696;2023-06-26T05:07:07;25.1;56.4
78461;SHT31;67755;51.986;5.696;2023-06-26T05:09:37;25.1;56.3
78461;SHT31;67755;51.986;5.696;2023-06-26T05:12:09;25.1;56.1
78461;SHT31;67755;51.986;5.696;2023-06-26T05:14:40;25.1;55.9
78461;SHT31;67755;51.986;5.696;2023-06-26T05:17:09;25.1;55.7
78461;SHT31;67755;51.986;5.696;2023-06-26T05:19:39;25.1;55.9
78461;SHT31;67755;51.986;5.696;2023-06-26T05:22:09;25.1;56.1
78461;SHT31;67755;51.986;5.696;2023-06-26T05:24:42;25.1;55.6
78461;SHT31;67755;51.986;5.696;2023-06-26T05:27:14;25.1;55.4
78461;SHT31;67755;51.986;5.696;2023-06-26T05:29:49;25.1;54.3
78461;SHT31;67755;51.986;5.696;2023-06-26T05:32:19;25.1;54.2
78461;SHT31;67755;51.986;5.696;2023-06-26T05:34:49;25.1;53.2
78461;SHT31;67755;51.986;5.696;2023-06-26T05:37:21;25.2;53.5
78461;SHT31;67755;51.986;5.696;2023-06-26T05:39:52;25.2;53.7
78461;SHT31;67755;51.986;5.696;2023-06-26T05:42:22;25.2;53.3
78461;SHT31;67755;51.986;5.696;2023-06-26T05:44:51;25.2;52.6
78461;SHT31;67755;51.986;5.696;2023-06-26T05:47:21;25.2;52.9
78461;SHT31;67755;51.986;5.696;2023-06-26T05:49:51;25.1;52.1
78461;SHT31;67755;51.986;5.696;2023-06-26T05:52:23;25.1;52.5
78461;SHT31;67755;51.986;5.696;2023-06-26T05:54:54;25.1;52.3
78461;SHT31;67755;51.986;5.696;2023-06-26T05:57:27;25.1;52.4
78461;SHT31;67755;51.986;5.696;2023-06-26T05:59:58;25.1;52.6
78461;SHT31;67755;51.986;5.696;2023-06-26T06:02:27;25.1;52.8
78461;SHT31;67755;51.986;5.696;2023-06-26T06:04:57;25.1;52.3
78461;SHT31;67755;51.986;5.696;2023-06-26T06:07:26;25.1;52.2
78461;SHT31;67755;51.986;5.696;2023-06-26T06:09:56;25.1;51.7
78461;SHT31;67755;51.986;5.696;2023-06-26T06:12:26;25.1;51.9
78461;SHT31;67755;51.986;5.696;2023-06-26T06:14:56;25.1;51.7
78461;SHT31;67755;51.986;5.696;2023-06-26T06:17:25;25.1;52.3
78461;SHT31;67755;51.986;5.696;2023-06-26T06:19:56;25.1;52.2
78461;SHT31;67755;51.986;5.696;2023-06-26T06:22:25;25.2;53.7
78461;SHT31;67755;51.986;5.696;2023-06-26T06:24:57;25.2;51.1
78461;SHT31;67755;51.986;5.696;2023-06-26T06:27:28;25.2;50.3
78461;SHT31;67755;51.986;5.696;2023-06-26T06:29:58;25.3;50.1
78461;SHT31;67755;51.986;5.696;2023-06-26T06:32:28;25.3;50.7
78461;SHT31;67755;51.986;5.696;2023-06-26T06:34:57;25.3;49.5
78461;SHT31;67755;51.986;5.696;2023-06-26T06:37:31;25.4;49.7
78461;SHT31;67755;51.986;5.696;2023-06-26T06:40:01;25.4;50.8
78461;SHT31;67755;51.986;5.696;2023-06-26T06:42:31;25.4;50.5
78461;SHT31;67755;51.986;5.696;2023-06-26T06:45:02;25.4;49.7
78461;SHT31;67755;51.986;5.696;2023-06-26T06:47:32;25.5;50.5
78461;SHT31;67755;51.986;5.696;2023-06-26T06:50:02;25.6;49.5
78461;SHT31;67755;51.986;5.696;2023-06-26T06:52:37;25.6;49.1
78461;SHT31;67755;51.986;5.696;2023-06-26T06:55:08;25.7;49.3
78461;SHT31;67755;51.986;5.696;2023-06-26T06:57:40;25.7;49.5
78461;SHT31;67755;51.986;5.696;2023-06-26T07:00:12;25.8;49.7
78461;SHT31;67755;51.986;5.696;2023-06-26T07:02:43;25.8;49.5
78461;SHT31;67755;51.986;5.696;2023-06-26T07:05:13;25.9;48.5
78461;SHT31;67755;51.986;5.696;2023-06-26T07:07:45;26.0;48.4
78461;SHT31;67755;51.986;5.696;2023-06-26T07:10:15;26.0;48.7
78461;SHT31;67755;51.986;5.696;2023-06-26T07:12:44;26.1;48.0
78461;SHT31;67755;51.986;5.696;2023-06-26T07:15:14;26.1;47.7
78461;SHT31;67755;51.986;5.696;2023-06-26T07:17:43;26.1;49.0
78461;SHT31;67755;51.986;5.696;2023-06-26T07:20:13;26.2;49.2
78461;SHT31;67755;51.986;5.696;2023-06-26T07:22:45;26.2;48.5
78461;SHT31;67755;51.986;5.696;2023-06-26T07:25:14;26.2;48.7
78461;SHT31;67755;51.986;5.696;2023-06-26T07:27:44;26.3;49.4
78461;SHT31;67755;51.986;5.696;2023-06-26T07:30:14;26.3;49.1
78461;SHT31;67755;51.986;5.696;2023-06-26T07:32:45;26.3;48.9
78461;SHT31;67755;51.986;5.696;2023-06-26T07:35:15;26.4;48.5
78461;SHT31;67755;51.986;5.696;2023-06-26T07:37:45;26.4;48.4
78461;SHT31;67755;51.986;5.696;2023-06-26T07:40:15;26.5;48.8
78461;SHT31;67755;51.986;5.696;2023-06-26T07:42:45;26.5;48.6
78461;SHT31;67755;51.986;5.696;2023-06-26T07:45:16;26.5;49.1
78461;SHT31;67755;51.986;5.696;2023-06-26T07:47:47;26.6;48.7
78461;SHT31;67755;51.986;5.696;2023-06-26T07:50:16;26.7;47.4
78461;SHT31;67755;51.986;5.696;2023-06-26T07:52:49;26.8;47.5
78461;SHT31;67755;51.986;5.696;2023-06-26T07:55:20;26.8;47.5
78461;SHT31;67755;51.986;5.696;2023-06-26T07:57:50;26.9;48.3
78461;SHT31;67755;51.986;5.696;2023-06-26T08:00:20;26.9;47.8
78461;SHT31;67755;51.986;5.696;2023-06-26T08:02:49;26.9;47.6
78461;SHT31;67755;51.986;5.696;2023-06-26T08:05:21;27.0;47.7
78461;SHT31;67755;51.986;5.696;2023-06-26T08:07:51;27.0;47.7
78461;SHT31;67755;51.986;5.696;2023-06-26T08:10:22;27.0;47.3
78461;SHT31;67755;51.986;5.696;2023-06-26T08:12:52;27.1;47.6
78461;SHT31;67755;51.986;5.696;2023-06-26T08:15:22;27.1;46.5
78461;SHT31;67755;51.986;5.696;2023-06-26T08:17:52;27.1;46.6
78461;SHT31;67755;51.986;5.696;2023-06-26T08:20:23;27.1;47.4
78461;SHT31;67755;51.986;5.696;2023-06-26T08:22:53;27.1;47.3
78461;SHT31;67755;51.986;5.696;2023-06-26T08:25:22;27.1;48.1
78461;SHT31;67755;51.986;5.696;2023-06-26T08:27:52;27.1;48.3
78461;SHT31;67755;51.986;5.696;2023-06-26T08:30:22;27.2;48.2
78461;SHT31;67755;51.986;5.696;2023-06-26T08:32:55;27.2;47.1
78461;SHT31;67755;51.986;5.696;2023-06-26T08:35:25;27.3;47.2
78461;SHT31;67755;51.986;5.696;2023-06-26T08:37:54;27.3;46.7
78461;SHT31;67755;51.986;5.696;2023-06-26T08:40:25;27.4;46.8
78461;SHT31;67755;51.986;5.696;2023-06-26T08:42:55;27.4;45.0
78461;SHT31;67755;51.986;5.696;2023-06-26T08:45:25;27.5;45.8
78461;SHT31;67755;51.986;5.696;2023-06-26T08:48:00;27.5;46.1
78461;SHT31;67755;51.986;5.696;2023-06-26T08:50:34;27.6;45.8
78461;SHT31;67755;51.986;5.696;2023-06-26T08:53:11;27.6;44.7
78461;SHT31;67755;51.986;5.696;2023-06-26T08:55:47;27.7;44.2
78461;SHT31;67755;51.986;5.696;2023-06-26T08:58:18;27.8;44.3
78461;SHT31;67755;51.986;5.696;2023-06-26T09:00:48;27.9;44.7
78461;SHT31;67755;51.986;5.696;2023-06-26T09:03:18;28.0;42.3
78461;SHT31;67755;51.986;5.696;2023-06-26T09:05:49;28.0;42.2
78461;SHT31;67755;51.986;5.696;2023-06-26T09:08:20;28.1;41.8
78461;SHT31;67755;51.986;5.696;2023-06-26T09:10:53;28.1;41.6
78461;SHT31;67755;51.986;5.696;2023-06-26T09:13:25;28.2;41.2
78461;SHT31;67755;51.986;5.696;2023-06-26T09:15:55;28.2;41.5
78461;SHT31;67755;51.986;5.696;2023-06-26T09:18:24;28.2;38.2
78461;SHT31;67755;51.986;5.696;2023-06-26T09:20:56;28.2;39.3
78461;SHT31;67755;51.986;5.696;2023-06-26T09:23:26;28.3;38.2
78461;SHT31;67755;51.986;5.696;2023-06-26T09:25:56;28.3;39.2
78461;SHT31;67755;51.986;5.696;2023-06-26T09:28:25;28.3;39.1
78461;SHT31;67755;51.986;5.696;2023-06-26T09:31:00;28.3;39.6
78461;SHT31;67755;51.986;5.696;2023-06-26T09:33:33;28.3;39.0
78461;SHT31;67755;51.986;5.696;2023-06-26T09:36:06;28.3;40.1
78461;SHT31;67755;51.986;5.696;2023-06-26T09:38:37;28.3;39.3
78461;SHT31;67755;51.986;5.696;2023-06-26T09:41:08;28.3;40.5
78461;SHT31;67755;51.986;5.696;2023-06-26T09:43:48;28.3;39.8
78461;SHT31;67755;51.986;5.696;2023-06-26T09:46:28;28.3;39.1
78461;SHT31;67755;51.986;5.696;2023-06-26T09:49:03;28.3;39.8
78461;SHT31;67755;51.986;5.696;2023-06-26T09:51:34;28.2;40.2
78461;SHT31;67755;51.986;5.696;2023-06-26T09:54:06;28.2;39.6
78461;SHT31;67755;51.986;5.696;2023-06-26T09:56:37;28.3;39.7
78461;SHT31;67755;51.986;5.696;2023-06-26T09:59:06;28.3;39.8
78461;SHT31;67755;51.986;5.696;2023-06-26T10:01:41;28.3;39.7
78461;SHT31;67755;51.986;5.696;2023-06-26T10:04:11;28.3;38.4
78461;SHT31;67755;51.986;5.696;2023-06-26T10:06:46;28.4;37.8
78461;SHT31;67755;51.986;5.696;2023-06-26T10:09:19;28.4;38.9
78461;SHT31;67755;51.986;5.696;2023-06-26T10:11:55;28.4;39.2
78461;SHT31;67755;51.986;5.696;2023-06-26T10:14:32;28.5;38.4
78461;SHT31;67755;51.986;5.696;2023-06-26T10:17:08;28.5;39.4
78461;SHT31;67755;51.986;5.696;2023-06-26T10:19:44;28.6;38.8
78461;SHT31;67755;51.986;5.696;2023-06-26T10:22:15;28.6;39.1
78461;SHT31;67755;51.986;5.696;2023-06-26T10:24:47;28.7;38.8
78461;SHT31;67755;51.986;5.696;2023-06-26T10:27:20;28.7;35.8
78461;SHT31;67755;51.986;5.696;2023-06-26T10:29:54;28.8;36.0
78461;SHT31;67755;51.986;5.696;2023-06-26T10:32:25;28.9;35.0
78461;SHT31;67755;51.986;5.696;2023-06-26T10:34:56;29.0;34.3
78461;SHT31;67755;51.986;5.696;2023-06-26T10:37:43;29.0;34.6
78461;SHT31;67755;51.986;5.696;2023-06-26T10:40:14;29.0;34.3
78461;SHT31;67755;51.986;5.696;2023-06-26T10:42:44;29.0;36.2
78461;SHT31;67755;51.986;5.696;2023-06-26T10:45:22;29.1;36.2
78461;SHT31;67755;51.986;5.696;2023-06-26T10:47:53;29.2;35.9
78461;SHT31;67755;51.986;5.696;2023-06-26T10:50:26;29.2;36.5
78461;SHT31;67755;51.986;5.696;2023-06-26T10:53:11;29.2;35.3
78461;SHT31;67755;51.986;5.696;2023-06-26T10:55:49;29.3;35.2
78461;SHT31;67755;51.986;5.696;2023-06-26T10:58:32;29.3;34.2
78461;SHT31;67755;51.986;5.696;2023-06-26T11:01:22;29.3;34.1
78461;SHT31;67755;51.986;5.696;2023-06-26T11:04:07;29.3;33.5
78461;SHT31;67755;51.986;5.696;2023-06-26T11:06:38;29.3;33.3
78461;SHT31;67755;51.986;5.696;2023-06-26T11:09:10;29.3;34.3
78461;SHT31;67755;51.986;5.696;2023-06-26T11:11:59;29.3;35.7
78461;SHT31;67755;51.986;5.696;2023-06-26T11:14:33;29.3;32.2
78461;SHT31;67755;51.986;5.696;2023-06-26T11:17:05;29.3;34.1
78461;SHT31;67755;51.986;5.696;2023-06-26T11:19:35;29.3;34.2
78461;SHT31;67755;51.986;5.696;2023-06-26T11:22:05;29.3;33.8
78461;SHT31;67755;51.986;5.696;2023-06-26T11:24:36;29.3;34.3
78461;SHT31;67755;51.986;5.696;2023-06-26T11:27:06;29.4;32.4
78461;SHT31;67755;51.986;5.696;2023-06-26T11:29:36;29.4;33.1
78461;SHT31;67755;51.986;5.696;2023-06-26T11:32:06;29.3;33.8
78461;SHT31;67755;51.986;5.696;2023-06-26T11:34:36;29.3;34.5
78461;SHT31;67755;51.986;5.696;2023-06-26T11:37:06;29.4;34.3
78461;SHT31;67755;51.986;5.696;2023-06-26T11:39:35;29.3;33.5
78461;SHT31;67755;51.986;5.696;2023-06-26T11:42:06;29.3;34.3
78461;SHT31;67755;51.986;5.696;2023-06-26T11:44:43;29.3;34.2
78461;SHT31;67755;51.986;5.696;2023-06-26T11:47:18;29.3;35.7
78461;SHT31;67755;51.986;5.696;2023-06-26T11:49:49;29.3;34.8
78461;SHT31;67755;51.986;5.696;2023-06-26T11:52:19;29.3;35.4
78461;SHT31;67755;51.986;5.696;2023-06-26T11:54:48;29.3;35.2
78461;SHT31;67755;51.986;5.696;2023-06-26T11:57:18;29.3;34.5
78461;SHT31;67755;51.986;5.696;2023-06-26T11:59:50;29.3;34.3
78461;SHT31;67755;51.986;5.696;2023-06-26T12:02:21;29.3;34.5
78461;SHT31;67755;51.986;5.696;2023-06-26T12:04:51;29.4;33.0
78461;SHT31;67755;51.986;5.696;2023-06-26T12:07:21;29.4;35.2
78461;SHT31;67755;51.986;5.696;2023-06-26T12:09:53;29.4;34.1
78461;SHT31;67755;51.986;5.696;2023-06-26T12:12:25;29.5;33.1
78461;SHT31;67755;51.986;5.696;2023-06-26T12:14:56;29.5;33.0
78461;SHT31;67755;51.986;5.696;2023-06-26T12:17:27;29.5;31.1
78461;SHT31;67755;51.986;5.696;2023-06-26T12:19:57;29.5;31.9
78461;SHT31;67755;51.986;5.696;2023-06-26T12:22:36;29.5;31.9
78461;SHT31;67755;51.986;5.696;2023-06-26T12:25:08;29.4;32.3
78461;SHT31;67755;51.986;5.696;2023-06-26T12:27:38;29.4;33.2
78461;SHT31;67755;51.986;5.696;2023-06-26T12:30:08;29.4;33.4
78461;SHT31;67755;51.986;5.696;2023-06-26T12:32:38;29.4;33.4
78461;SHT31;67755;51.986;5.696;2023-06-26T12:35:09;29.4;33.7
78461;SHT31;67755;51.986;5.696;2023-06-26T12:37:39;29.4;33.5
78461;SHT31;67755;51.986;5.696;2023-06-26T12:40:18;29.4;32.9
78461;SHT31;67755;51.986;5.696;2023-06-26T12:42:49;29.4;31.9
78461;SHT31;67755;51.986;5.696;2023-06-26T12:45:19;29.4;32.4
78461;SHT31;67755;51.986;5.696;2023-06-26T12:47:50;29.5;33.1
78461;SHT31;67755;51.986;5.696;2023-06-26T12:50:20;29.5;32.1
78461;SHT31;67755;51.986;5.696;2023-06-26T12:52:50;29.5;32.2
78461;SHT31;67755;51.986;5.696;2023-06-26T12:55:20;29.5;32.7
78461;SHT31;67755;51.986;5.696;2023-06-26T12:57:50;29.6;31.6
78461;SHT31;67755;51.986;5.696;2023-06-26T13:00:22;29.6;32.0
78461;SHT31;67755;51.986;5.696;2023-06-26T13:02:52;29.6;30.5
78461;SHT31;67755;51.986;5.696;2023-06-26T13:05:22;29.6;31.6
78461;SHT31;67755;51.986;5.696;2023-06-26T13:07:52;29.6;31.1
78461;SHT31;67755;51.986;5.696;2023-06-26T13:10:22;29.6;31.5
78461;SHT31;67755;51.986;5.696;2023-06-26T13:12:54;29.5;30.5
78461;SHT31;67755;51.986;5.696;2023-06-26T13:15:24;29.5;31.0
78461;SHT31;67755;51.986;5.696;2023-06-26T13:17:54;29.5;31.4
78461;SHT31;67755;51.986;5.696;2023-06-26T13:20:24;29.4;32.1
78461;SHT31;67755;51.986;5.696;2023-06-26T13:22:53;29.4;32.3
78461;SHT31;67755;51.986;5.696;2023-06-26T13:25:25;29.3;30.7
78461;SHT31;67755;51.986;5.696;2023-06-26T13:27:55;29.3;32.6
78461;SHT31;67755;51.986;5.696;2023-06-26T13:30:25;29.3;33.1
78461;SHT31;67755;51.986;5.696;2023-06-26T13:32:54;29.4;33.2
78461;SHT31;67755;51.986;5.696;2023-06-26T13:35:24;29.4;31.6
78461;SHT31;67755;51.986;5.696;2023-06-26T13:37:54;29.4;32.7
78461;SHT31;67755;51.986;5.696;2023-06-26T13:40:23;29.4;32.8
78461;SHT31;67755;51.986;5.696;2023-06-26T13:42:53;29.4;32.6
78461;SHT31;67755;51.986;5.696;2023-06-26T13:45:22;29.4;32.2
78461;SHT31;67755;51.986;5.696;2023-06-26T13:47:52;29.3;31.9
78461;SHT31;67755;51.986;5.696;2023-06-26T13:50:22;29.3;31.8
78461;SHT31;67755;51.986;5.696;2023-06-26T13:52:51;29.2;31.4
78461;SHT31;67755;51.986;5.696;2023-06-26T13:55:21;29.1;31.4
78461;SHT31;67755;51.986;5.696;2023-06-26T13:57:51;29.1;32.4
78461;SHT31;67755;51.986;5.696;2023-06-26T14:00:23;29.0;33.0
78461;SHT31;67755;51.986;5.696;2023-06-26T14:02:54;29.0;32.9
78461;SHT31;67755;51.986;5.696;2023-06-26T14:05:25;28.9;32.0
78461;SHT31;67755;51.986;5.696;2023-06-26T14:07:54;28.9;32.4
78461;SHT31;67755;51.986;5.696;2023-06-26T14:10:26;28.9;32.4
78461;SHT31;67755;51.986;5.696;2023-06-26T14:12:56;28.9;33.9
78461;SHT31;67755;51.986;5.696;2023-06-26T14:15:26;28.9;33.9
78461;SHT31;67755;51.986;5.696;2023-06-26T14:17:56;28.9;32.5
78461;SHT31;67755;51.986;5.696;2023-06-26T14:20:26;28.9;33.0
78461;SHT31;67755;51.986;5.696;2023-06-26T14:22:57;28.9;32.5
78461;SHT31;67755;51.986;5.696;2023-06-26T14:25:28;28.9;33.0
78461;SHT31;67755;51.986;5.696;2023-06-26T14:27:58;28.9;32.8
78461;SHT31;67755;51.986;5.696;2023-06-26T14:30:28;28.9;33.6
78461;SHT31;67755;51.986;5.696;2023-06-26T14:32:58;28.9;32.2
78461;SHT31;67755;51.986;5.696;2023-06-26T14:35:27;28.9;33.3
78461;SHT31;67755;51.986;5.696;2023-06-26T14:37:57;28.9;33.3
78461;SHT31;67755;51.986;5.696;2023-06-26T14:40:26;28.9;33.2
78461;SHT31;67755;51.986;5.696;2023-06-26T14:42:56;28.9;32.9
78461;SHT31;67755;51.986;5.696;2023-06-26T14:45:25;28.9;33.6
78461;SHT31;67755;51.986;5.696;2023-06-26T14:47:55;28.9;33.7
78461;SHT31;67755;51.986;5.696;2023-06-26T14:50:24;28.9;33.1
78461;SHT31;67755;51.986;5.696;2023-06-26T14:52:54;29.0;32.2
78461;SHT31;67755;51.986;5.696;2023-06-26T14:55:24;29.0;31.8
78461;SHT31;67755;51.986;5.696;2023-06-26T14:57:53;28.9;33.3
78461;SHT31;67755;51.986;5.696;2023-06-26T15:00:23;28.9;33.5
78461;SHT31;67755;51.986;5.696;2023-06-26T15:02:54;28.9;31.4
78461;SHT31;67755;51.986;5.696;2023-06-26T15:05:27;28.9;32.6
78461;SHT31;67755;51.986;5.696;2023-06-26T15:07:59;28.9;33.5
78461;SHT31;67755;51.986;5.696;2023-06-26T15:10:29;28.9;32.3
78461;SHT31;67755;51.986;5.696;2023-06-26T15:12:58;28.9;31.4
78461;SHT31;67755;51.986;5.696;2023-06-26T15:15:28;28.8;31.4
78461;SHT31;67755;51.986;5.696;2023-06-26T15:17:59;28.8;31.0
78461;SHT31;67755;51.986;5.696;2023-06-26T15:20:29;28.8;33.0
78461;SHT31;67755;51.986;5.696;2023-06-26T15:22:59;28.7;32.2
78461;SHT31;67755;51.986;5.696;2023-06-26T15:25:28;28.7;32.8
78461;SHT31;67755;51.986;5.696;2023-06-26T15:27:59;28.7;32.9
78461;SHT31;67755;51.986;5.696;2023-06-26T15:30:30;28.7;32.4
78461;SHT31;67755;51.986;5.696;2023-06-26T15:33:00;28.7;33.0
78461;SHT31;67755;51.986;5.696;2023-06-26T15:35:29;28.6;31.9
78461;SHT31;67755;51.986;5.696;2023-06-26T15:37:59;28.6;33.5
78461;SHT31;67755;51.986;5.696;2023-06-26T15:40:28;28.6;31.4
78461;SHT31;67755;51.986;5.696;2023-06-26T15:42:58;28.5;31.6
78461;SHT31;67755;51.986;5.696;2023-06-26T15:45:28;28.5;31.4
78461;SHT31;67755;51.986;5.696;2023-06-26T15:47:57;28.5;31.9
78461;SHT31;67755;51.986;5.696;2023-06-26T15:50:28;28.4;32.6
78461;SHT31;67755;51.986;5.696;2023-06-26T15:52:59;28.4;32.0
78461;SHT31;67755;51.986;5.696;2023-06-26T15:55:30;28.4;33.0
78461;SHT31;67755;51.986;5.696;2023-06-26T15:57:59;28.3;33.4
78461;SHT31;67755;51.986;5.696;2023-06-26T16:00:29;28.3;32.6
78461;SHT31;67755;51.986;5.696;2023-06-26T16:02:59;28.3;32.8
78461;SHT31;67755;51.986;5.696;2023-06-26T16:05:28;28.2;32.5
78461;SHT31;67755;51.986;5.696;2023-06-26T16:07:58;28.1;32.6
78461;SHT31;67755;51.986;5.696;2023-06-26T16:10:27;28.1;33.2
78461;SHT31;67755;51.986;5.696;2023-06-26T16:12:57;28.0;33.8
78461;SHT31;67755;51.986;5.696;2023-06-26T16:15:26;27.9;34.2
78461;SHT31;67755;51.986;5.696;2023-06-26T16:17:56;27.9;33.6
78461;SHT31;67755;51.986;5.696;2023-06-26T16:20:26;27.8;33.3
78461;SHT31;67755;51.986;5.696;2023-06-26T16:22:55;27.8;33.2
78461;SHT31;67755;51.986;5.696;2023-06-26T16:25:25;27.7;33.2